Time;durP1;ratioP1;P1;durP2;ratioP2;P2;SDS_P1;SDS_P2;PMS_P1;PMS_P2;Temp;Humidity;BMP_temperature;BMP_pressure;BME280_temperature;BME280_humidity;BME280_pressure;Samples;Min_cycle;Max_cycle;Signal;HPM_P1;HPM_P2
2022/10/27 00:02:12;;;;;;;1.77;1.33;;;10.20;99.90;;;;;;5071638;28;20899;-48
2022/10/27 00:04:39;;;;;;;4.30;2.53;;;10.00;99.90;;;;;;5071627;28;20476;-48
2022/10/27 00:07:07;;;;;;;4.73;1.97;;;10.00;99.90;;;;;;5072235;28;20812;-49
2022/10/27 00:09:34;;;;;;;2.83;1.50;;;10.00;99.90;;;;;;5071594;28;20443;-47
2022/10/27 00:12:01;;;;;;;2.77;1.40;;;10.10;99.90;;;;;;5071974;28;20476;-51
2022/10/27 00:14:28;;;;;;;3.07;1.63;;;10.10;99.90;;;;;;5071593;28;20460;-48
2022/10/27 00:16:56;;;;;;;5.50;1.83;;;10.00;99.90;;;;;;5071577;28;20444;-48
2022/10/27 00:19:24;;;;;;;4.80;1.80;;;10.20;99.90;;;;;;5071725;28;20535;-47
2022/10/27 00:21:51;;;;;;;2.07;1.40;;;10.20;99.90;;;;;;5071600;28;20833;-48
2022/10/27 00:24:20;;;;;;;4.20;1.60;;;10.40;99.90;;;;;;5071195;28;20996;-47
2022/10/27 00:26:47;;;;;;;2.90;2.10;;;10.50;99.90;;;;;;5071426;28;20443;-47
2022/10/27 00:29:14;;;;;;;3.47;1.93;;;10.70;99.90;;;;;;5071245;28;20471;-47
2022/10/27 00:31:41;;;;;;;2.67;1.80;;;10.40;99.90;;;;;;5070827;28;20467;-47
2022/10/27 00:34:08;;;;;;;4.30;1.73;;;10.60;99.90;;;;;;5071158;28;20553;-47
2022/10/27 00:36:35;;;;;;;2.90;1.40;;;10.60;99.90;;;;;;5071173;28;20496;-48
2022/10/27 00:39:02;;;;;;;3.50;1.67;;;10.70;99.90;;;;;;5071348;28;20528;-48
2022/10/27 00:41:32;;;;;;;1.70;1.30;;;10.70;99.90;;;;;;5071081;28;20469;-47
2022/10/27 00:44:00;;;;;;;2.93;1.57;;;10.60;99.90;;;;;;5071048;28;20464;-47
2022/10/27 00:46:35;;;;;;;2.53;1.40;;;10.60;99.90;;;;;;5071497;28;20818;-50
2022/10/27 00:49:06;;;;;;;2.80;1.40;;;10.70;99.90;;;;;;5071391;28;20438;-47
2022/10/27 00:51:33;;;;;;;5.03;1.50;;;10.60;99.90;;;;;;5070715;28;20561;-47
2022/10/27 00:54:00;;;;;;;2.63;1.50;;;10.60;99.90;;;;;;5070624;28;20445;-49
2022/10/27 00:56:27;;;;;;;3.23;1.73;;;10.40;99.90;;;;;;5070919;28;20533;-47
2022/10/27 00:58:56;;;;;;;4.40;1.57;;;10.50;99.90;;;;;;5071027;28;20876;-49
2022/10/27 01:01:23;;;;;;;2.00;1.27;;;10.70;99.90;;;;;;5071071;28;20981;-48
2022/10/27 01:03:50;;;;;;;6.30;1.67;;;10.90;99.90;;;;;;5070969;28;20572;-47
2022/10/27 01:06:17;;;;;;;2.53;1.23;;;10.60;99.90;;;;;;5070952;28;20437;-48
2022/10/27 01:08:44;;;;;;;2.17;1.30;;;10.30;99.90;;;;;;5071095;28;20544;-47
2022/10/27 01:11:11;;;;;;;3.17;2.00;;;9.60;99.90;;;;;;5071266;28;20465;-47
2022/10/27 01:13:39;;;;;;;2.67;1.60;;;9.60;99.90;;;;;;5070603;28;20531;-48
2022/10/27 01:16:19;;;;;;;2.83;1.40;;;9.60;99.90;;;;;;5071177;28;20523;-48
2022/10/27 01:18:57;;;;;;;3.13;1.77;;;9.40;99.90;;;;;;5070756;28;20441;-47
2022/10/27 01:21:53;;;;;;;2.53;1.73;;;9.40;99.90;;;;;;5070992;28;20973;-48
2022/10/27 01:24:56;;;;;;;6.13;1.93;;;9.50;99.90;;;;;;5070929;28;20861;-48
2022/10/27 01:28:03;;;;;;;8.60;2.07;;;9.40;99.90;;;;;;5070787;28;20440;-48
2022/10/27 01:30:36;;;;;;;3.10;1.40;;;9.40;99.90;;;;;;4969628;28;20559;-47
2022/10/27 01:33:10;;;;;;;2.70;1.23;;;9.80;99.90;;;;;;5057474;28;20531;-47
2022/10/27 01:35:48;;;;;;;2.83;1.60;;;10.00;99.90;;;;;;5070660;28;20428;-47
2022/10/27 01:38:20;;;;;;;2.37;1.30;;;10.30;99.90;;;;;;5070655;28;20439;-48
2022/10/27 01:40:54;;;;;;;2.90;1.33;;;10.30;99.90;;;;;;5070424;28;20850;-47
2022/10/27 01:43:24;;;;;;;4.77;1.97;;;10.40;99.90;;;;;;5073677;28;20441;-50
2022/10/27 01:45:52;;;;;;;2.50;1.70;;;10.50;99.90;;;;;;5074267;28;20447;-50
2022/10/27 01:48:21;;;;;;;2.10;1.70;;;10.40;99.90;;;;;;5074783;28;20524;-50
2022/10/27 01:50:48;;;;;;;2.83;1.67;;;10.40;99.90;;;;;;5075278;28;20475;-47
2022/10/27 01:53:15;;;;;;;2.33;1.30;;;10.30;99.90;;;;;;5073839;28;20766;-47
2022/10/27 01:55:55;;;;;;;2.73;1.17;;;10.40;99.90;;;;;;5074162;28;20523;-47
2022/10/27 01:58:36;;;;;;;2.47;1.40;;;10.50;99.90;;;;;;5074235;28;20445;-48
2022/10/27 02:01:17;;;;;;;2.70;1.30;;;10.20;99.90;;;;;;5074342;28;20471;-47
2022/10/27 02:03:51;;;;;;;2.37;1.30;;;10.10;99.90;;;;;;5073949;28;20490;-47
2022/10/27 02:06:24;;;;;;;5.10;1.60;;;10.30;99.90;;;;;;5074270;28;20537;-47
2022/10/27 02:08:58;;;;;;;2.53;1.60;;;10.40;99.90;;;;;;5074125;28;20952;-47
2022/10/27 02:11:27;;;;;;;1.97;1.40;;;10.30;99.90;;;;;;5074031;28;20825;-51
2022/10/27 02:13:57;;;;;;;4.37;1.70;;;10.30;99.90;;;;;;5073764;28;20527;-47
2022/10/27 02:16:29;;;;;;;5.63;1.60;;;10.40;99.90;;;;;;5074017;28;20455;-47
2022/10/27 02:19:02;;;;;;;3.50;1.57;;;10.20;99.90;;;;;;5073816;28;20440;-47
2022/10/27 02:21:33;;;;;;;3.33;1.43;;;10.30;99.90;;;;;;5073756;28;20552;-49
2022/10/27 02:23:59;;;;;;;3.40;1.33;;;10.40;99.90;;;;;;5073348;28;20630;-50
2022/10/27 02:26:31;;;;;;;3.67;1.23;;;10.50;99.90;;;;;;5073540;28;20528;-47
2022/10/27 02:29:01;;;;;;;5.03;1.50;;;10.40;99.90;;;;;;5073550;28;20531;-50
2022/10/27 02:31:32;;;;;;;4.57;1.97;;;10.40;99.90;;;;;;5073440;28;21005;-48
2022/10/27 02:34:02;;;;;;;3.40;1.60;;;10.50;99.90;;;;;;5073429;28;21044;-48
2022/10/27 02:36:29;;;;;;;4.13;2.07;;;10.30;99.90;;;;;;5073638;28;20540;-50
2022/10/27 02:38:56;;;;;;;2.30;1.50;;;10.10;99.90;;;;;;5073562;28;20447;-47
2022/10/27 02:41:23;;;;;;;1.50;1.30;;;9.60;99.90;;;;;;5073249;28;21011;-48
2022/10/27 02:43:50;;;;;;;5.37;1.90;;;9.40;99.90;;;;;;5072861;28;21152;-47
2022/10/27 02:46:17;;;;;;;3.47;1.50;;;9.60;99.90;;;;;;5073316;28;20543;-47
2022/10/27 02:48:43;;;;;;;2.20;1.40;;;9.50;99.90;;;;;;5073574;28;20441;-48
2022/10/27 02:51:12;;;;;;;2.90;1.73;;;9.40;99.90;;;;;;5072786;28;20563;-47
2022/10/27 02:53:38;;;;;;;2.73;1.17;;;9.70;99.90;;;;;;5072224;28;20445;-48
2022/10/27 02:56:06;;;;;;;3.53;1.20;;;10.00;99.90;;;;;;5073132;28;20447;-47
2022/10/27 02:58:33;;;;;;;5.47;2.43;;;10.20;99.90;;;;;;5073334;28;20523;-47
2022/10/27 03:00:59;;;;;;;2.50;1.20;;;10.30;99.90;;;;;;5072813;28;21039;-47
2022/10/27 03:03:26;;;;;;;2.10;1.57;;;10.30;99.90;;;;;;5073140;28;20449;-47
2022/10/27 03:05:53;;;;;;;1.70;1.10;;;10.10;99.90;;;;;;5072646;28;20854;-47
2022/10/27 03:08:21;;;;;;;4.43;2.00;;;10.20;99.90;;;;;;5072896;28;21045;-50
2022/10/27 03:10:48;;;;;;;3.07;1.63;;;10.30;99.90;;;;;;5072615;28;20988;-48
2022/10/27 03:13:15;;;;;;;4.20;1.80;;;10.20;99.90;;;;;;5072514;28;20942;-47
2022/10/27 03:15:44;;;;;;;2.30;1.87;;;10.30;99.90;;;;;;5072599;28;20433;-47
2022/10/27 03:18:12;;;;;;;4.63;2.00;;;10.40;99.90;;;;;;5072817;28;20445;-50
2022/10/27 03:20:39;;;;;;;5.60;3.30;;;10.50;99.90;;;;;;5072432;28;20465;-50
2022/10/27 03:23:06;;;;;;;1.53;1.07;;;10.40;99.90;;;;;;5072217;28;20933;-47
2022/10/27 03:25:35;;;;;;;1.90;1.30;;;10.30;99.90;;;;;;5072643;28;20483;-47
2022/10/27 03:28:02;;;;;;;4.80;2.00;;;9.90;99.90;;;;;;5072275;28;20451;-48
2022/10/27 03:30:29;;;;;;;3.53;1.70;;;9.70;99.90;;;;;;5072604;28;20985;-47
2022/10/27 03:32:56;;;;;;;4.20;1.97;;;9.60;99.90;;;;;;5072484;28;20544;-47
2022/10/27 03:35:23;;;;;;;4.53;1.50;;;9.60;99.90;;;;;;5072131;28;20436;-48
2022/10/27 03:37:55;;;;;;;3.30;1.80;;;9.90;99.90;;;;;;5072496;28;20445;-47
2022/10/27 03:40:22;;;;;;;2.30;1.60;;;10.00;99.90;;;;;;5072196;28;20444;-48
2022/10/27 03:42:52;;;;;;;2.50;1.67;;;9.80;99.90;;;;;;5072189;28;20472;-47
2022/10/27 03:45:19;;;;;;;2.43;1.60;;;9.60;99.90;;;;;;5072116;28;20468;-48
2022/10/27 03:47:46;;;;;;;2.60;1.17;;;9.80;99.90;;;;;;5072029;28;20540;-47
2022/10/27 03:50:13;;;;;;;2.40;1.23;;;10.00;99.90;;;;;;5071264;28;20791;-48
2022/10/27 03:52:41;;;;;;;2.40;1.20;;;9.90;99.90;;;;;;5072136;28;20441;-47
2022/10/27 03:55:08;;;;;;;5.43;1.30;;;9.70;99.90;;;;;;5071535;28;21017;-49
2022/10/27 03:57:35;;;;;;;1.83;1.43;;;9.60;99.90;;;;;;5071864;28;20528;-50
2022/10/27 04:00:04;;;;;;;2.40;1.60;;;9.80;99.90;;;;;;5071762;28;20536;-47
2022/10/27 04:02:31;;;;;;;3.17;1.63;;;9.60;99.90;;;;;;5071975;28;20524;-47
2022/10/27 04:04:58;;;;;;;2.40;1.97;;;9.20;99.90;;;;;;5070842;28;20482;-50
2022/10/27 04:07:24;;;;;;;3.43;2.13;;;8.90;99.90;;;;;;5071382;28;20448;-47
2022/10/27 04:09:51;;;;;;;2.70;1.67;;;9.00;99.90;;;;;;5071736;28;20445;-47
2022/10/27 04:12:18;;;;;;;3.27;2.10;;;9.50;99.90;;;;;;5071600;28;21056;-47
2022/10/27 04:14:45;;;;;;;5.17;2.10;;;9.70;99.90;;;;;;5071329;28;20531;-47
2022/10/27 04:17:13;;;;;;;2.03;1.83;;;9.60;99.90;;;;;;5071763;28;20531;-47
2022/10/27 04:19:40;;;;;;;3.50;1.80;;;9.70;99.90;;;;;;5071444;28;20535;-48
2022/10/27 04:22:07;;;;;;;2.80;1.60;;;9.80;99.90;;;;;;5071525;28;20460;-50
2022/10/27 04:24:33;;;;;;;2.63;1.33;;;9.70;99.90;;;;;;5071274;28;20498;-47
2022/10/27 04:27:00;;;;;;;3.40;1.10;;;9.60;99.90;;;;;;5071419;28;20532;-47
2022/10/27 04:29:27;;;;;;;1.93;1.30;;;9.50;99.90;;;;;;5071496;28;20469;-50
2022/10/27 04:31:54;;;;;;;2.70;1.40;;;9.10;99.90;;;;;;5071304;28;20547;-47
2022/10/27 04:34:22;;;;;;;2.83;1.50;;;9.20;99.90;;;;;;5071334;28;20540;-47
2022/10/27 04:36:49;;;;;;;2.93;2.10;;;9.40;99.90;;;;;;5071517;28;20531;-47
2022/10/27 04:39:16;;;;;;;3.67;2.40;;;9.50;99.90;;;;;;5071102;28;20531;-49
2022/10/27 04:41:43;;;;;;;2.87;1.70;;;9.60;99.90;;;;;;5071257;28;20467;-47
2022/10/27 04:44:10;;;;;;;5.30;1.80;;;9.60;99.90;;;;;;5071359;28;20528;-47
2022/10/27 04:46:36;;;;;;;3.10;1.70;;;9.70;99.90;;;;;;5071280;28;20571;-49
2022/10/27 04:49:03;;;;;;;2.77;1.80;;;9.60;99.90;;;;;;5071479;28;20521;-47
2022/10/27 04:51:31;;;;;;;3.07;1.73;;;9.30;99.90;;;;;;5070614;28;20479;-47
2022/10/27 04:53:58;;;;;;;3.80;1.93;;;9.00;99.90;;;;;;5070981;28;20993;-48
2022/10/27 04:56:25;;;;;;;7.03;4.30;;;8.70;99.90;;;;;;5071565;28;20460;-48
2022/10/27 04:58:52;;;;;;;8.90;7.90;;;9.00;99.90;;;;;;5071733;28;20925;-47
2022/10/27 05:01:19;;;;;;;7.90;6.03;;;9.30;99.90;;;;;;5071358;28;20467;-47
2022/10/27 05:03:47;;;;;;;3.57;2.70;;;9.40;99.90;;;;;;5070811;28;20531;-48
2022/10/27 05:06:14;;;;;;;6.53;3.00;;;9.60;99.90;;;;;;5071088;28;20563;-47
2022/10/27 05:08:42;;;;;;;8.97;8.17;;;9.40;99.90;;;;;;5071038;28;21009;-47
2022/10/27 05:11:09;;;;;;;10.90;9.90;;;9.00;99.90;;;;;;5071296;28;20460;-49
2022/10/27 05:13:36;;;;;;;125.03;100.57;;;9.10;99.90;;;;;;5070693;28;21009;-49
2022/10/27 05:16:04;;;;;;;16.70;15.03;;;9.30;99.90;;;;;;5071032;28;20980;-48
2022/10/27 05:18:31;;;;;;;9.73;8.80;;;9.20;99.90;;;;;;5074854;28;20440;-47
2022/10/27 05:20:58;;;;;;;16.80;11.77;;;8.80;99.90;;;;;;5074810;28;20570;-49
2022/10/27 05:23:25;;;;;;;12.87;11.57;;;9.10;99.90;;;;;;5074734;28;20527;-49
2022/10/27 05:25:54;;;;;;;9.27;6.63;;;9.40;99.90;;;;;;5074813;28;20841;-47
2022/10/27 05:28:22;;;;;;;6.13;4.27;;;9.50;99.90;;;;;;5074997;28;20447;-48
2022/10/27 05:30:49;;;;;;;2.53;2.27;;;9.30;99.90;;;;;;5074765;28;20460;-47
2022/10/27 05:33:16;;;;;;;2.97;2.17;;;8.90;99.90;;;;;;5074482;28;20535;-47
2022/10/27 05:35:44;;;;;;;5.50;4.00;;;8.80;99.90;;;;;;5074761;28;20432;-47
2022/10/27 05:38:11;;;;;;;6.83;6.17;;;9.10;99.90;;;;;;5074552;28;20466;-47
2022/10/27 05:40:38;;;;;;;4.90;3.07;;;9.30;99.90;;;;;;5074458;28;20922;-47
2022/10/27 05:43:07;;;;;;;4.20;2.30;;;9.10;99.90;;;;;;5074438;28;20502;-47
2022/10/27 05:45:34;;;;;;;5.60;3.30;;;8.60;99.90;;;;;;5074625;28;20563;-47
2022/10/27 05:48:02;;;;;;;6.90;4.93;;;8.80;99.90;;;;;;5074482;28;20445;-48
2022/10/27 05:50:30;;;;;;;3.40;2.73;;;9.20;99.90;;;;;;5073970;28;20555;-47
2022/10/27 05:52:57;;;;;;;3.60;1.80;;;9.20;99.90;;;;;;5074237;28;20800;-48
2022/10/27 05:55:24;;;;;;;3.03;1.93;;;9.00;99.90;;;;;;5074319;28;20524;-47
2022/10/27 05:57:54;;;;;;;4.70;4.20;;;8.70;99.90;;;;;;5074146;28;20803;-47
2022/10/27 06:00:25;;;;;;;3.40;3.10;;;9.10;99.90;;;;;;5074112;28;21018;-47
2022/10/27 06:02:52;;;;;;;4.20;1.70;;;9.20;99.90;;;;;;5074141;28;20471;-45
2022/10/27 06:05:18;;;;;;;5.67;1.93;;;9.00;99.90;;;;;;5074197;28;20473;-47
2022/10/27 06:07:45;;;;;;;2.67;2.00;;;9.10;99.90;;;;;;5074601;28;20802;-49
2022/10/27 06:10:12;;;;;;;3.70;2.37;;;9.20;99.90;;;;;;5074230;28;20960;-47
2022/10/27 06:12:39;;;;;;;3.43;2.60;;;9.50;99.90;;;;;;5073814;28;20440;-47
2022/10/27 06:15:07;;;;;;;13.33;2.17;;;9.30;99.90;;;;;;5073852;28;20518;-49
2022/10/27 06:17:35;;;;;;;6.70;2.33;;;8.80;99.90;;;;;;5073832;28;20531;-47
2022/10/27 06:20:02;;;;;;;4.07;1.90;;;9.20;99.90;;;;;;5074087;28;20914;-47
2022/10/27 06:22:29;;;;;;;3.20;2.00;;;9.10;99.90;;;;;;5073669;28;20468;-47
2022/10/27 06:24:55;;;;;;;2.37;1.40;;;8.80;99.90;;;;;;5073594;28;20540;-47
2022/10/27 06:27:22;;;;;;;3.40;1.90;;;9.10;99.90;;;;;;5073737;28;20455;-47
2022/10/27 06:29:49;;;;;;;2.07;1.40;;;9.30;99.90;;;;;;5072854;28;20531;-47
2022/10/27 06:32:16;;;;;;;2.10;1.53;;;9.40;99.90;;;;;;5073787;28;20831;-46
2022/10/27 06:34:44;;;;;;;2.93;2.10;;;9.60;99.90;;;;;;5073458;28;20533;-50
2022/10/27 06:37:11;;;;;;;4.43;2.40;;;9.60;99.90;;;;;;5073740;28;20445;-49
2022/10/27 06:39:40;;;;;;;4.40;2.50;;;9.60;99.90;;;;;;5073659;28;20451;-47
2022/10/27 06:42:07;;;;;;;9.30;2.70;;;9.60;99.90;;;;;;5073346;28;20882;-47
2022/10/27 06:44:33;;;;;;;4.03;2.87;;;9.50;99.90;;;;;;5073398;28;20891;-50
2022/10/27 06:47:00;;;;;;;3.60;1.83;;;9.60;99.90;;;;;;5073223;28;20567;-47
2022/10/27 06:49:27;;;;;;;2.60;2.33;;;9.60;99.90;;;;;;5073335;28;20449;-47
2022/10/27 06:51:55;;;;;;;3.43;1.67;;;9.60;99.90;;;;;;5072639;28;20555;-49
2022/10/27 06:54:22;;;;;;;2.43;1.63;;;9.50;99.90;;;;;;5073179;28;21024;-49
2022/10/27 06:56:49;;;;;;;5.90;2.40;;;9.20;99.90;;;;;;5073390;28;20997;-47
2022/10/27 06:59:16;;;;;;;3.33;2.27;;;8.60;99.90;;;;;;5073226;28;20540;-47
2022/10/27 07:01:43;;;;;;;3.33;2.03;;;8.50;99.90;;;;;;5072970;28;20460;-50
2022/10/27 07:04:10;;;;;;;3.03;1.93;;;8.60;99.90;;;;;;5072681;28;20444;-47
2022/10/27 07:06:36;;;;;;;2.93;2.30;;;8.50;99.90;;;;;;5073238;28;20528;-47
2022/10/27 07:09:05;;;;;;;2.07;1.50;;;8.50;99.90;;;;;;5073025;28;20528;-47
2022/10/27 07:11:31;;;;;;;2.20;1.70;;;8.60;99.90;;;;;;5073099;28;20548;-47
2022/10/27 07:13:58;;;;;;;5.90;2.63;;;8.80;99.90;;;;;;5072563;28;20531;-48
2022/10/27 07:16:25;;;;;;;3.80;2.37;;;9.20;99.90;;;;;;5072781;28;20516;-47
2022/10/27 07:18:52;;;;;;;5.50;2.77;;;9.30;99.90;;;;;;5072663;28;20894;-47
2022/10/27 07:21:19;;;;;;;5.80;3.83;;;8.80;99.90;;;;;;5072964;28;20543;-47
2022/10/27 07:23:46;;;;;;;6.03;3.93;;;8.30;99.90;;;;;;5072454;28;20528;-47
2022/10/27 07:26:14;;;;;;;9.23;3.53;;;8.60;99.90;;;;;;5072601;28;20477;-48
2022/10/27 07:28:41;;;;;;;5.00;3.10;;;8.10;99.90;;;;;;5072642;28;20447;-47
2022/10/27 07:31:07;;;;;;;6.70;2.63;;;8.40;99.90;;;;;;5072447;28;20547;-47
2022/10/27 07:33:34;;;;;;;4.40;2.20;;;8.80;99.90;;;;;;5072073;28;20445;-47
2022/10/27 07:36:01;;;;;;;2.67;1.90;;;9.00;99.90;;;;;;5072424;28;20464;-47
2022/10/27 07:38:28;;;;;;;2.73;1.73;;;9.20;99.90;;;;;;5072369;28;20528;-47
2022/10/27 07:40:56;;;;;;;4.20;2.80;;;9.10;99.90;;;;;;5071976;28;20544;-47
2022/10/27 07:43:24;;;;;;;2.37;2.10;;;9.20;99.90;;;;;;5071937;28;20523;-47
2022/10/27 07:45:52;;;;;;;2.70;2.03;;;9.40;99.90;;;;;;5072132;28;20472;-47
2022/10/27 07:48:19;;;;;;;2.60;2.10;;;9.30;99.90;;;;;;5072190;28;20539;-47
2022/10/27 07:50:46;;;;;;;4.13;2.23;;;9.30;99.90;;;;;;5072576;28;20845;-48
2022/10/27 07:53:15;;;;;;;5.23;3.67;;;9.40;99.90;;;;;;5072298;28;20868;-47
2022/10/27 07:55:42;;;;;;;7.57;4.50;;;9.50;99.90;;;;;;5072406;28;20440;-47
2022/10/27 07:58:11;;;;;;;7.33;3.97;;;9.50;99.90;;;;;;5071902;28;20480;-47
2022/10/27 08:00:41;;;;;;;4.73;2.77;;;8.70;99.90;;;;;;5072102;28;20495;-47
2022/10/27 08:03:11;;;;;;;4.83;2.60;;;8.40;99.90;;;;;;5071761;28;20531;-47
2022/10/27 08:05:38;;;;;;;3.37;2.50;;;8.10;99.90;;;;;;5071849;28;20944;-47
2022/10/27 08:08:06;;;;;;;4.80;2.30;;;8.20;99.90;;;;;;5071832;28;20703;-47
2022/10/27 08:10:36;;;;;;;6.73;3.13;;;8.60;99.90;;;;;;5071650;28;20468;-47
2022/10/27 08:13:03;;;;;;;3.70;3.07;;;9.10;99.90;;;;;;5071556;28;20542;-47
2022/10/27 08:15:30;;;;;;;6.77;3.57;;;9.00;99.90;;;;;;5071603;28;20532;-47
2022/10/27 08:18:01;;;;;;;4.30;3.43;;;8.50;99.90;;;;;;5071516;28;20956;-47
2022/10/27 08:20:30;;;;;;;4.83;4.43;;;8.90;99.90;;;;;;5071478;28;20470;-47
2022/10/27 08:22:58;;;;;;;8.37;4.10;;;9.10;99.90;;;;;;5071301;28;20440;-47
2022/10/27 08:25:26;;;;;;;4.47;3.60;;;9.10;99.90;;;;;;5071620;28;20444;-47
2022/10/27 08:27:53;;;;;;;7.80;3.23;;;9.20;99.90;;;;;;5071800;28;20480;-47
2022/10/27 08:30:20;;;;;;;4.07;2.90;;;9.40;99.90;;;;;;5071407;28;20444;-47
2022/10/27 08:32:47;;;;;;;3.33;1.97;;;9.50;99.90;;;;;;5071243;28;20444;-47
2022/10/27 08:35:16;;;;;;;2.87;1.80;;;9.70;99.90;;;;;;5071486;28;20447;-47
2022/10/27 08:37:43;;;;;;;2.77;1.97;;;9.70;99.90;;;;;;5071247;28;20451;-48
2022/10/27 08:40:11;;;;;;;2.90;2.20;;;9.70;99.90;;;;;;5071504;28;20447;-47
2022/10/27 08:42:47;;;;;;;2.43;1.53;;;9.80;99.90;;;;;;5071584;28;20447;-47
2022/10/27 08:45:18;;;;;;;4.77;2.63;;;9.80;99.90;;;;;;5070972;28;20541;-47
2022/10/27 08:47:46;;;;;;;5.83;2.43;;;9.70;99.90;;;;;;5071264;28;20481;-47
2022/10/27 08:50:18;;;;;;;4.57;3.27;;;9.70;99.90;;;;;;5070390;28;20445;-47
2022/10/27 08:52:49;;;;;;;4.00;3.27;;;9.70;99.90;;;;;;5070683;28;20818;-47
2022/10/27 08:55:22;;;;;;;4.23;3.80;;;9.80;99.90;;;;;;5071219;28;20543;-48
2022/10/27 08:57:59;;;;;;;11.80;4.47;;;9.90;99.90;;;;;;5071006;28;20459;-47
2022/10/27 09:00:29;;;;;;;6.93;4.10;;;9.90;99.90;;;;;;5071186;28;20826;-47
2022/10/27 09:03:13;;;;;;;6.07;4.10;;;10.00;99.90;;;;;;5071112;28;20820;-48
2022/10/27 09:05:55;;;;;;;5.97;5.07;;;9.70;99.90;;;;;;5071027;28;20441;-47
2022/10/27 09:08:30;;;;;;;6.50;4.50;;;9.90;99.90;;;;;;5071006;28;20437;-48
2022/10/27 09:11:07;;;;;;;7.60;5.20;;;10.00;99.90;;;;;;5071125;28;20544;-48
2022/10/27 09:13:57;;;;;;;5.97;4.80;;;10.10;99.90;;;;;;5071238;28;20490;-49
2022/10/27 09:16:34;;;;;;;13.00;6.10;;;10.20;99.90;;;;;;5071195;28;20433;-48
2022/10/27 09:19:05;;;;;;;4.47;4.10;;;10.30;99.90;;;;;;5071117;28;20896;-49
2022/10/27 09:21:36;;;;;;;4.97;4.00;;;10.40;99.90;;;;;;5071426;28;20452;-48
2022/10/27 09:24:08;;;;;;;7.10;5.03;;;10.60;99.90;;;;;;5071132;28;20525;-48
2022/10/27 09:26:35;;;;;;;6.87;4.30;;;10.70;99.90;;;;;;5071352;28;20957;-48
2022/10/27 09:29:04;;;;;;;6.60;3.33;;;10.80;99.90;;;;;;5070979;28;20532;-48
2022/10/27 09:31:39;;;;;;;5.80;3.13;;;10.80;99.90;;;;;;5070989;28;21017;-49
2022/10/27 09:34:14;;;;;;;6.30;3.60;;;10.70;99.90;;;;;;5071290;28;20485;-48
2022/10/27 09:36:42;;;;;;;4.07;3.67;;;10.80;99.90;;;;;;5071125;28;20487;-50
2022/10/27 09:39:09;;;;;;;4.60;3.30;;;10.80;99.90;;;;;;5071130;28;20524;-49
2022/10/27 09:41:37;;;;;;;6.53;3.10;;;11.00;99.90;;;;;;5070937;28;20465;-49
2022/10/27 09:44:04;;;;;;;3.80;2.60;;;11.10;99.90;;;;;;5070527;28;20449;-49
2022/10/27 09:46:32;;;;;;;3.80;2.60;;;11.10;99.90;;;;;;5070958;28;20482;-50
2022/10/27 09:49:04;;;;;;;6.67;2.47;;;11.30;99.90;;;;;;5071011;28;20956;-51
2022/10/27 09:51:39;;;;;;;3.13;2.20;;;11.40;99.90;;;;;;5070178;28;20582;-50
2022/10/27 09:54:28;;;;;;;1.83;1.57;;;11.50;99.90;;;;;;5070467;28;20447;-48
2022/10/27 09:56:56;;;;;;;4.50;2.70;;;11.60;99.90;;;;;;5070935;28;20433;-48
2022/10/27 09:59:23;;;;;;;3.33;2.47;;;11.70;99.90;;;;;;5070843;28;20539;-48
2022/10/27 10:01:56;;;;;;;3.67;2.07;;;11.80;99.90;;;;;;5070735;28;21040;-48
2022/10/27 10:04:26;;;;;;;3.20;1.90;;;11.80;99.90;;;;;;5073689;28;20441;-47
2022/10/27 10:06:55;;;;;;;5.00;1.93;;;11.90;99.90;;;;;;5074494;28;20503;-50
2022/10/27 10:09:26;;;;;;;2.90;1.80;;;11.90;99.90;;;;;;5074406;28;20449;-48
2022/10/27 10:12:13;;;;;;;4.63;2.50;;;11.90;99.90;;;;;;5074287;28;21161;-50
2022/10/27 10:14:40;;;;;;;2.43;2.10;;;12.00;99.90;;;;;;5073948;28;20934;-48
2022/10/27 10:17:20;;;;;;;4.07;2.50;;;12.10;99.90;;;;;;5074320;28;20808;-51
2022/10/27 10:19:48;;;;;;;4.30;2.20;;;12.20;99.90;;;;;;5074423;28;20474;-48
2022/10/27 10:22:22;;;;;;;3.67;1.70;;;12.20;99.90;;;;;;5074174;28;21057;-48
2022/10/27 10:24:50;;;;;;;4.80;2.13;;;12.30;99.90;;;;;;5074044;28;20438;-50
2022/10/27 10:27:27;;;;;;;1.87;1.40;;;12.30;99.90;;;;;;5073429;28;20497;-48
2022/10/27 10:29:57;;;;;;;5.23;1.63;;;12.40;99.90;;;;;;5074020;28;20446;-48
2022/10/27 10:32:26;;;;;;;2.57;2.37;;;12.40;99.90;;;;;;5074030;28;20804;-48
2022/10/27 10:34:53;;;;;;;3.07;2.30;;;12.40;99.90;;;;;;5073773;28;20905;-49
2022/10/27 10:37:45;;;;;;;4.27;2.20;;;12.40;99.90;;;;;;5073609;28;20541;-48
2022/10/27 10:40:27;;;;;;;2.23;1.80;;;12.50;99.90;;;;;;5049671;28;20446;-48
2022/10/27 10:43:03;;;;;;;4.50;2.40;;;12.50;99.90;;;;;;5073143;28;20541;-48
2022/10/27 10:45:35;;;;;;;4.77;2.40;;;12.70;99.90;;;;;;5073334;28;20964;-48
2022/10/27 10:48:06;;;;;;;3.60;2.33;;;12.70;99.90;;;;;;5073292;28;20577;-48
2022/10/27 10:50:44;;;;;;;3.70;2.53;;;12.80;99.90;;;;;;5072583;28;20470;-47
2022/10/27 10:53:22;;;;;;;5.77;2.50;;;12.90;99.90;;;;;;5073252;28;20547;-48
2022/10/27 10:55:51;;;;;;;2.50;2.10;;;13.00;99.90;;;;;;5073150;28;20448;-48
2022/10/27 10:58:21;;;;;;;2.90;2.00;;;13.00;99.90;;;;;;5073263;28;20475;-48
2022/10/27 11:00:57;;;;;;;3.47;2.50;;;13.10;99.90;;;;;;5073346;28;20476;-50
2022/10/27 11:03:26;;;;;;;3.77;2.10;;;13.30;99.90;;;;;;5073119;28;20454;-50
2022/10/27 11:05:58;;;;;;;2.10;1.60;;;13.40;99.90;;;;;;5073162;28;20958;-48
2022/10/27 11:08:36;;;;;;;2.80;1.60;;;13.40;99.90;;;;;;5072947;28;21074;-48
2022/10/27 11:11:11;;;;;;;4.40;1.80;;;13.50;99.90;;;;;;5073029;28;20543;-48
2022/10/27 11:13:45;;;;;;;2.07;1.43;;;13.50;99.90;;;;;;5073003;28;20447;-48
2022/10/27 11:16:13;;;;;;;2.43;1.50;;;13.60;99.90;;;;;;5072531;28;20525;-48
2022/10/27 11:18:48;;;;;;;4.60;1.70;;;13.70;99.90;;;;;;5072758;28;20446;-48
2022/10/27 11:21:21;;;;;;;3.33;1.87;;;13.70;99.90;;;;;;5072981;28;20490;-48
2022/10/27 11:23:52;;;;;;;4.33;1.77;;;13.80;99.90;;;;;;5072589;28;20537;-48
2022/10/27 11:26:24;;;;;;;3.20;2.30;;;13.90;99.90;;;;;;5072701;28;21011;-48
2022/10/27 11:28:57;;;;;;;7.50;2.40;;;13.90;99.90;;;;;;5072691;28;20562;-48
2022/10/27 11:31:33;;;;;;;3.60;2.47;;;14.10;99.90;;;;;;5072192;28;20536;-49
2022/10/27 11:34:05;;;;;;;2.37;1.77;;;14.10;99.90;;;;;;5072065;28;20530;-48
2022/10/27 11:36:39;;;;;;;2.87;2.07;;;14.20;99.90;;;;;;5072379;28;20449;-48
2022/10/27 11:39:08;;;;;;;3.80;2.30;;;14.20;99.90;;;;;;5072578;28;20531;-48
2022/10/27 11:41:46;;;;;;;3.10;2.43;;;14.30;99.90;;;;;;5072220;28;20933;-48
2022/10/27 11:44:23;;;;;;;3.67;1.67;;;14.40;99.90;;;;;;5072265;28;20541;-48
2022/10/27 11:46:56;;;;;;;4.67;2.30;;;14.40;99.90;;;;;;5072451;28;20444;-49
2022/10/27 11:49:31;;;;;;;4.80;2.00;;;14.40;99.90;;;;;;5072015;28;20449;-49
2022/10/27 11:52:03;;;;;;;3.20;2.00;;;14.30;99.90;;;;;;5071524;28;20563;-48
2022/10/27 11:54:31;;;;;;;2.33;1.73;;;14.50;99.90;;;;;;5071924;28;20538;-48
2022/10/27 11:57:10;;;;;;;4.23;1.83;;;14.70;99.90;;;;;;5072092;28;20440;-48
2022/10/27 11:59:52;;;;;;;5.03;2.10;;;14.70;99.90;;;;;;5071981;28;20538;-50
2022/10/27 12:02:36;;;;;;;3.00;1.70;;;14.70;99.90;;;;;;5071758;28;20464;-48
2022/10/27 12:05:09;;;;;;;3.30;2.00;;;14.60;99.90;;;;;;5071806;28;20828;-48
2022/10/27 12:07:50;;;;;;;2.60;2.03;;;14.60;99.90;;;;;;5071571;28;21000;-48
2022/10/27 12:10:31;;;;;;;3.83;1.70;;;14.80;99.90;;;;;;5071793;28;20523;-49
2022/10/27 12:13:04;;;;;;;2.87;2.27;;;14.90;99.90;;;;;;5071490;28;20930;-48
2022/10/27 12:15:36;;;;;;;3.67;1.90;;;14.90;99.90;;;;;;5071819;28;20526;-49
2022/10/27 12:18:13;;;;;;;6.17;2.80;;;14.90;99.90;;;;;;5071668;28;20487;-49
2022/10/27 12:20:45;;;;;;;5.30;2.67;;;15.00;99.90;;;;;;5071584;28;20468;-48
2022/10/27 12:23:17;;;;;;;4.53;2.20;;;14.90;99.90;;;;;;5071429;28;20449;-49
2022/10/27 12:25:52;;;;;;;3.57;2.33;;;14.90;99.90;;;;;;5071183;28;20448;-48
2022/10/27 12:28:23;;;;;;;3.40;1.93;;;15.10;99.90;;;;;;5070939;28;20484;-48
2022/10/27 12:30:50;;;;;;;7.73;2.40;;;15.10;99.90;;;;;;5071555;28;20473;-49
2022/10/27 12:33:23;;;;;;;3.17;2.43;;;15.20;99.90;;;;;;5071283;28;20527;-49
2022/10/27 12:35:56;;;;;;;6.27;2.23;;;15.20;99.90;;;;;;5071452;28;20443;-48
2022/10/27 12:38:30;;;;;;;5.00;2.33;;;15.20;99.90;;;;;;5071616;28;20445;-49
2022/10/27 12:41:05;;;;;;;4.17;2.33;;;15.20;99.90;;;;;;5071269;28;20977;-48
2022/10/27 12:43:39;;;;;;;3.20;2.03;;;15.20;99.90;;;;;;5071138;28;20822;-49
2022/10/27 12:46:29;;;;;;;7.90;2.57;;;15.30;99.90;;;;;;5071361;28;20440;-51
2022/10/27 12:49:07;;;;;;;3.50;2.03;;;15.30;99.90;;;;;;5071296;28;20842;-48
2022/10/27 12:51:42;;;;;;;4.30;2.60;;;15.40;99.90;;;;;;5070399;28;20853;-49
2022/10/27 12:54:36;;;;;;;3.37;2.73;;;15.50;99.90;;;;;;5071374;28;20444;-48
2022/10/27 12:57:18;;;;;;;3.60;2.83;;;15.50;99.90;;;;;;5071227;28;20524;-52
2022/10/27 12:59:57;;;;;;;6.40;4.23;;;15.60;99.90;;;;;;5071227;28;20532;-48
2022/10/27 13:02:28;;;;;;;4.10;2.50;;;15.60;99.90;;;;;;5071216;28;20551;-50
2022/10/27 13:05:25;;;;;;;4.40;3.17;;;15.60;99.90;;;;;;5070857;28;20527;-48
2022/10/27 13:08:05;;;;;;;3.60;2.57;;;15.70;99.90;;;;;;5070843;28;20561;-49